Latest Weather Observations for Gingin Airport

IDW60801

Issued at 8:35 am WST Tuesday 21 October 2014 (issued every 30 minutes, with the page automatically refreshed every 10 minutes)

About weather observations | Map of weather stations | Latest weather observations for WA | Other Formats
Station Details ID: 009178 Name: GINGIN AERO Lat: -31.46 Lon: 115.86 Height: 73.0 m
Data from the previous 72 hours. | See also: Recent months at Gingin Airport
Date/Time
WST
Temp
°C
App
Temp
°C
Dew
Point
Rel
Hum
%
Delta-T
°C
Wind Press
QNH
hPa
Press
MSL
hPa
Rain
since 9 am
mm
Dir
 
Spd
km/h
Gust
km/h
Spd
kts
Gust
kts
21/08:30am 17.5 16.2 13.8 79 2.1 E 13 19 7 10 1022.4 1022.3 0.0
21/08:00am 16.1 15.1 13.4 84 1.5 E 11 15 6 8 1022.5 1022.4 0.0
21/07:30am 14.5 13.4 14.2 98 0.2 ESE 13 17 7 9 1022.4 1022.3 0.0
21/07:00am 12.2 11.7 12.2 100 0.0 ESE 6 9 3 5 1022.2 1022.1 0.0
21/06:30am 8.8 8.5 8.8 100 0.0 CALM 0 0 0 0 1021.9 1021.8 0.0
21/06:00am 5.4 3.2 5.4 100 0.0 S 6 6 3 3 1021.5 1021.4 0.0
21/05:30am 5.8 3.7 5.8 100 0.0 S 6 6 3 3 1021.4 1021.3 0.0
21/05:00am 5.3 4.2 5.3 100 0.0 CALM 0 0 0 0 1021.3 1021.2 0.0
21/04:30am 5.2 4.1 5.2 100 0.0 CALM 0 0 0 0 1020.9 1020.8 0.0
21/04:00am 5.9 5.0 5.9 100 0.0 CALM 0 0 0 0 1020.7 1020.6 0.0
21/03:30am 6.0 5.1 6.0 100 0.0 CALM 0 0 0 0 1020.5 1020.4 0.0
21/03:00am 6.5 5.7 6.5 100 0.0 CALM 0 0 0 0 1020.2 1020.1 0.0
21/02:30am 6.7 4.8 6.7 100 0.0 S 6 7 3 4 1020.3 1020.2 0.0
21/02:00am 6.9 6.2 6.9 100 0.0 CALM 0 0 0 0 1020.5 1020.4 0.0
21/01:30am 6.6 5.8 6.6 100 0.0 CALM 0 0 0 0 1020.6 1020.5 0.0
21/01:00am 7.0 6.3 7.0 100 0.0 CALM 0 0 0 0 1020.5 1020.4 0.0
21/12:30am 7.7 7.2 7.7 100 0.0 CALM 0 0 0 0 1020.4 1020.3 0.0
21/12:00am 8.3 7.2 8.3 100 0.0 S 4 6 2 3 1020.7 1020.6 0.0
 
Date/Time
WST
Temp
°C
App
Temp
°C
Dew
Point
Rel
Hum
%
Delta-T
°C
Wind Press
QNH
hPa
Press
MSL
hPa
Rain
since 9 am
mm
Dir
 
Spd
km/h
Gust
km/h
Spd
kts
Gust
kts
20/11:30pm 9.4 8.9 9.4 100 0.0 S 2 6 1 3 1020.7 1020.6 0.0
20/11:00pm 9.9 9.9 9.9 100 0.0 CALM 0 0 0 0 1020.8 1020.7 0.0
20/10:30pm 10.7 9.8 10.7 100 0.0 S 6 7 3 4 1021.0 1020.9 0.0
20/10:00pm 12.5 12.1 12.3 99 0.1 S 6 6 3 3 1021.0 1020.9 0.0
20/09:30pm 13.0 12.0 12.4 96 0.3 S 9 11 5 6 1021.0 1020.9 0.0
20/09:00pm 13.2 12.1 12.1 93 0.6 S 9 9 5 5 1021.0 1020.9 0.0
20/08:30pm 12.6 11.7 11.2 91 0.7 SW 7 9 4 5 1020.9 1020.8 0.0
20/08:00pm 13.0 13.2 10.7 86 1.2 SW 0 0 0 0 1020.8 1020.7 0.0
20/07:30pm 14.4 13.0 10.8 79 1.9 WSW 9 9 5 5 1020.6 1020.5 0.0
20/07:00pm 15.7 13.8 10.5 71 2.7 SW 11 13 6 7 1020.5 1020.4 0.0
20/06:30pm 16.7 14.4 10.3 66 3.4 SW 13 15 7 8 1020.3 1020.2 0.0
20/06:00pm 18.0 14.8 10.1 60 4.2 SW 17 22 9 12 1019.8 1019.7 0.0
20/05:30pm 18.9 14.4 10.2 57 4.7 SW 24 30 13 16 1019.6 1019.5 0.0
20/05:00pm 19.7 14.9 10.4 55 5.0 SW 26 33 14 18 1019.5 1019.4 0.0
20/04:30pm 20.1 16.0 11.6 58 4.7 SW 24 30 13 16 1019.3 1019.2 0.0
20/04:00pm 20.5 16.7 11.2 55 5.1 SW 22 32 12 17 1018.9 1018.8 0.0
20/03:30pm 20.3 15.7 11.2 56 5.0 SW 26 33 14 18 1018.9 1018.8 0.0
20/03:00pm 20.5 15.6 11.2 55 5.1 WSW 28 33 15 18 1018.6 1018.5 0.0
20/02:30pm 20.2 15.6 11.1 56 5.0 SW 26 35 14 19 1018.5 1018.4 0.0
20/02:00pm 20.4 15.8 11.1 55 5.1 WSW 26 37 14 20 1018.5 1018.4 0.0
20/01:30pm 21.7 17.2 11.4 52 5.7 WSW 26 37 14 20 1018.5 1018.4 0.0
20/01:00pm 21.3 17.0 10.8 51 5.8 WSW 24 33 13 18 1018.6 1018.5 0.0
20/12:30pm 20.7 16.2 10.2 51 5.7 SW 24 33 13 18 1018.5 1018.4 0.0
20/12:00pm 20.7 16.4 10.8 53 5.4 WSW 24 35 13 19 1018.4 1018.2 0.0
20/11:30am 20.5 16.7 11.2 55 5.1 WSW 22 30 12 16 1018.5 1018.4 0.0
20/11:00am 20.5 17.3 11.2 55 5.1 WSW 19 33 10 18 1018.5 1018.4 0.0
20/10:30am 19.3 16.6 11.6 61 4.3 WSW 17 30 9 16 1018.7 1018.6 0.0
20/10:00am 18.3 15.7 12.1 67 3.4 WSW 17 24 9 13 1018.6 1018.5 0.0
20/09:30am 18.8 16.1 12.8 68 3.4 SSW 19 30 10 16 1018.7 1018.6 0.0
20/09:00am 16.9 13.9 12.6 76 2.4 SW 20 22 11 12 1018.8 1018.7 0.2
20/08:30am 15.9 14.7 12.8 82 1.7 S 11 19 6 10 1018.6 1018.5 0.2
20/08:00am 15.4 15.1 13.4 88 1.1 SE 7 13 4 7 1018.4 1018.2 0.2
20/07:30am 13.4 14.5 13.4 100 0.0 CALM 0 0 0 0 1018.4 1018.2 0.2
20/07:00am 11.8 12.4 11.8 100 0.0 CALM 0 2 0 1 1017.9 1017.7 0.2
20/06:30am 10.3 9.7 10.3 100 0.0 ESE 4 6 2 3 1017.7 1017.5 0.2
20/06:00am 7.4 5.7 7.4 100 0.0 ESE 6 9 3 5 1017.3 1017.1 0.2
20/05:30am 7.3 6.7 7.3 100 0.0 CALM 0 0 0 0 1017.0 1016.9 0.2
20/05:00am 8.0 7.2 8.0 100 0.0 ESE 2 6 1 3 1016.6 1016.5 0.2
20/04:30am 8.8 7.4 8.8 100 0.0 ESE 6 9 3 5 1016.4 1016.3 0.2
20/04:00am 7.6 5.7 7.6 100 0.0 SSW 7 9 4 5 1016.2 1016.1 0.2
20/03:30am 7.1 6.4 7.1 100 0.0 CALM 0 0 0 0 1015.8 1015.7 0.2
20/03:00am 7.7 7.2 7.7 100 0.0 CALM 0 0 0 0 1015.6 1015.5 0.2
20/02:30am 8.5 8.2 8.5 100 0.0 CALM 0 0 0 0 1015.7 1015.6 0.2
20/02:00am 9.9 8.8 9.9 100 0.0 S 6 7 3 4 1015.7 1015.6 0.2
20/01:30am 10.0 8.3 10.0 100 0.0 S 9 11 5 6 1015.5 1015.4 0.2
20/01:00am 10.0 8.0 10.0 100 0.0 S 11 13 6 7 1015.7 1015.6 0.2
20/12:30am 10.2 7.8 10.2 100 0.0 S 13 15 7 8 1015.9 1015.8 0.2
20/12:00am 10.5 8.6 10.5 100 0.0 SSW 11 13 6 7 1016.3 1016.2 0.2
 
Date/Time
WST
Temp
°C
App
Temp
°C
Dew
Point
Rel
Hum
%
Delta-T
°C
Wind Press
QNH
hPa
Press
MSL
hPa
Rain
since 9 am
mm
Dir
 
Spd
km/h
Gust
km/h
Spd
kts
Gust
kts
19/11:30pm 10.7 8.5 10.7 100 0.0 SSW 13 13 7 7 1016.2 1016.1 0.2
19/11:00pm 11.0 9.6 11.0 100 0.0 SW 9 11 5 6 1016.3 1016.2 0.2
19/10:30pm 11.6 10.8 11.6 100 0.0 SSW 7 9 4 5 1016.3 1016.2 0.2
19/10:00pm 12.1 10.7 12.1 100 0.0 S 11 13 6 7 1016.5 1016.4 0.2
19/09:30pm 12.4 11.4 12.4 100 0.0 S 9 11 5 6 1016.3 1016.2 0.2
19/09:00pm 12.8 11.5 12.6 99 0.1 S 11 13 6 7 1016.3 1016.2 0.2
19/08:30pm 13.4 12.6 12.8 96 0.3 S 9 13 5 7 1016.0 1015.9 0.2
19/08:00pm 14.1 13.0 13.0 93 0.6 S 11 15 6 8 1015.8 1015.7 0.2
19/07:30pm 14.2 13.1 13.1 93 0.6 SSE 11 15 6 8 1015.3 1015.2 0.2
19/07:00pm 14.7 14.2 13.9 95 0.5 SE 9 11 5 6 1014.9 1014.8 0.2
19/06:30pm 15.6 14.1 13.1 85 1.4 SE 13 17 7 9 1014.5 1014.4 0.2
19/06:00pm 16.7 15.0 13.6 82 1.8 SSE 15 22 8 12 1014.0 1013.9 0.2
19/05:30pm 17.4 15.1 12.9 75 2.5 SSE 17 22 9 12 1013.7 1013.6 0.2
19/05:00pm 17.3 14.4 13.0 76 2.4 SSE 20 28 11 15 1013.6 1013.5 0.2
19/04:30pm 18.2 15.2 12.6 70 3.1 S 20 26 11 14 1013.2 1013.1 0.2
19/04:00pm 17.8 15.2 13.3 75 2.5 S 19 26 10 14 1013.2 1013.1 0.2
19/03:30pm 18.0 15.2 13.3 74 2.7 SSE 20 28 11 15 1012.9 1012.8 0.2
19/03:00pm 18.5 15.8 13.6 73 2.8 SSE 20 28 11 15 1012.7 1012.6 0.2
19/02:30pm 18.8 16.1 13.0 69 3.3 SSW 19 24 10 13 1012.9 1012.8 0.2
19/02:00pm 18.8 16.3 12.3 66 3.6 SSE 17 24 9 13 1013.0 1012.9 0.2
19/01:30pm 18.2 15.7 12.4 69 3.2 SSE 17 24 9 13 1013.3 1013.2 0.2
19/01:00pm 17.5 16.0 14.2 81 1.9 SSE 15 24 8 13 1013.6 1013.5 0.2
19/12:30pm 16.2 14.7 15.4 95 0.5 SE 17 22 9 12 1014.1 1014.0 0.2
19/12:00pm 15.4 13.3 15.1 98 0.2 SE 20 28 11 15 1014.4 1014.3 0.2
19/11:30am 15.0 12.0 14.7 98 0.2 SE 24 30 13 16 1014.4 1014.3 0.2
19/11:00am 16.0 13.1 15.2 95 0.5 SE 24 32 13 17 1014.6 1014.5 0.2
19/10:30am 14.8 13.1 14.8 100 0.0 SSE 17 22 9 12 1015.2 1015.1 0.2
19/10:00am 14.7 13.0 14.7 100 0.0 SSE 17 24 9 13 1015.4 1015.3 0.2
19/09:30am 14.5 13.9 14.5 100 0.0 SSE 11 17 6 9 1015.3 1015.2 0.0
19/09:00am 14.5 14.2 14.5 100 0.0 SSE 9 15 5 8 1015.2 1015.1 10.4
19/08:30am 13.2 11.7 13.2 100 0.0 SE 13 20 7 11 1015.0 1014.9 10.4
19/08:00am 13.0 10.7 13.0 100 0.0 SE 17 22 9 12 1014.8 1014.7 10.2
19/07:30am 12.8 11.2 12.8 100 0.0 ESE 13 19 7 10 1014.8 1014.7 10.0
19/07:00am 12.9 9.6 12.9 100 0.0 ESE 22 32 12 17 1014.6 1014.5 9.4
19/06:30am 13.0 11.1 13.0 100 0.0 E 15 20 8 11 1014.9 1014.8 4.6
19/06:00am 13.7 12.2 13.1 96 0.3 E 13 17 7 9 1014.7 1014.6 0.8
19/05:30am 14.6 12.0 11.9 84 1.5 ESE 17 24 9 13 1014.3 1014.2 0.6
19/05:00am 14.6 11.5 11.7 83 1.6 ESE 19 28 10 15 1013.9 1013.8 0.6
19/04:30am 14.5 11.3 12.0 85 1.4 ESE 20 26 11 14 1013.5 1013.4 0.6
19/04:00am 14.2 11.3 12.4 89 1.0 ESE 19 26 10 14 1013.5 1013.4 0.6
19/03:30am 14.4 11.4 12.1 86 1.2 ESE 19 26 10 14 1013.5 1013.4 0.6
19/03:00am 14.7 11.6 11.7 82 1.6 ESE 19 30 10 16 1013.5 1013.4 0.6
19/02:30am 14.8 10.7 11.6 81 1.7 ESE 24 32 13 17 1013.3 1013.2 0.6
19/02:00am 14.9 9.8 11.9 82 1.6 ESE 30 41 16 22 1013.5 1013.4 0.6
19/01:30am 14.8 11.3 12.1 84 1.5 ESE 22 33 12 18 1013.5 1013.4 0.6
19/01:00am 14.9 11.0 12.0 83 1.6 ESE 24 35 13 19 1013.6 1013.5 0.6
19/12:30am 15.1 9.6 12.4 84 1.5 ESE 33 48 18 26 1014.1 1014.0 0.6
19/12:00am 15.2 10.3 12.7 85 1.4 ESE 30 37 16 20 1014.8 1014.7 0.6
 
Date/Time
WST
Temp
°C
App
Temp
°C
Dew
Point
Rel
Hum
%
Delta-T
°C
Wind Press
QNH
hPa
Press
MSL
hPa
Rain
since 9 am
mm
Dir
 
Spd
km/h
Gust
km/h
Spd
kts
Gust
kts
18/11:30pm 15.4 10.0 12.7 84 1.5 ESE 33 48 18 26 1014.6 1014.5 0.6
18/11:00pm 15.5 11.4 12.6 83 1.6 ESE 26 35 14 19 1014.4 1014.3 0.6
18/10:36pm 15.7 10.7 12.3 80 1.9 ESE 30 52 16 28 1014.6 1014.5 0.6
18/10:30pm 15.7 10.3 12.3 80 1.9 ESE 32 43 17 23 1014.5 1014.4 0.6
18/10:00pm 15.9 10.9 12.1 78 2.1 ESE 30 41 16 22 1014.9 1014.8 0.6
18/09:30pm 16.0 11.7 12.2 78 2.1 ESE 26 44 14 24 1014.9 1014.8 0.6
18/09:00pm 16.1 11.3 12.8 81 1.8 ESE 30 39 16 21 1014.8 1014.7 0.6
18/08:30pm 16.5 13.8 13.6 83 1.6 ESE 20 28 11 15 1014.7 1014.6 0.6
18/08:00pm 16.6 13.8 13.3 81 1.9 ESE 20 32 11 17 1014.6 1014.5 0.6
18/07:30pm 17.1 14.8 14.7 86 1.4 ESE 20 28 11 15 1014.2 1014.1 0.4
18/07:00pm 17.7 16.6 14.4 81 1.9 SSW 13 17 7 9 1013.4 1013.3 0.0
18/06:30pm 18.4 17.9 13.7 74 2.7 ESE 9 13 5 7 1012.1 1012.0 0.0
18/06:00pm 18.6 16.4 13.2 71 3.1 E 17 24 9 13 1011.7 1011.6 0.0
18/05:30pm 19.1 16.3 13.3 69 3.3 ESE 20 28 11 15 1011.5 1011.4 0.0
18/05:00pm 19.5 17.3 14.5 73 2.9 ESE 19 24 10 13 1011.0 1010.9 0.0
18/04:30pm 19.7 18.1 14.9 74 2.8 ESE 17 28 9 15 1010.6 1010.5 0.0
18/04:00pm 19.8 19.3 17.0 84 1.7 ESE 15 20 8 11 1010.6 1010.5 0.0
18/03:30pm 19.7 19.8 15.6 77 2.4 ESE 9 11 5 6 1010.6 1010.5 0.0
18/03:00pm 18.5 14.7 14.6 78 2.3 SE 28 35 15 19 1009.8 1009.7 0.0
18/02:30pm 22.3 19.5 14.4 61 4.7 E 22 30 12 16 1010.4 1010.3 0.0
18/02:00pm 21.7 18.0 13.9 61 4.5 E 26 32 14 17 1010.1 1010.0 0.0
18/01:30pm 22.4 19.4 14.8 62 4.5 SE 24 32 13 17 1010.4 1010.3 0.0
18/01:00pm 20.8 18.1 14.7 68 3.6 ESE 22 28 12 15 1011.0 1010.9 0.0
18/12:30pm 20.6 18.6 14.9 70 3.4 ESE 19 26 10 14 1011.2 1011.1 0.0
18/12:00pm 20.6 19.0 14.9 70 3.4 ESE 17 24 9 13 1011.2 1011.1 0.0
18/11:30am 21.4 19.6 15.5 69 3.5 E 19 28 10 15 1011.3 1011.2 0.0
18/11:00am 20.6 18.7 15.2 71 3.2 ESE 19 26 10 14 1011.2 1011.1 0.0
18/10:30am 20.6 18.6 15.6 73 3.0 SE 20 28 11 15 1011.2 1011.1 0.0
18/10:00am 20.4 18.5 15.2 72 3.1 SE 19 24 10 13 1011.1 1011.0 0.0
18/09:30am 20.4 18.5 15.2 72 3.1 ESE 19 28 10 15 1010.9 1010.8 0.0
18/09:00am 20.5 18.5 15.5 73 3.0 ESE 20 30 11 16 1010.5 1010.4 0.6

Other Formats:

Comma delimited format used in spreadsheet applications
http://www.bom.gov.au/fwo/IDW60801/IDW60801.95612.axf

JavaScript Object Notation format (JSON) in row-major order
http://www.bom.gov.au/fwo/IDW60801/IDW60801.95612.json